Погода Покшивнана неделю

Лодзинское воеводство, Польша

15 - 21 июля
  • 15июля
    Сегодня
    +17°
    +30°
    Ясно и безоблачно
    ВремяПогодаТемператураВлажностьДавлениеВетер, м/сВероятность осадков
    02:00Облачно с прояснениями+17°C92 %748 мм1.5 м/с2 %
    05:00Практически безоблачно+16°C97 %749 мм1.5 м/с2 %
    08:00Ясно и безоблачно+21°C83 %749 мм1.5 м/с43 %
    11:00Практически безоблачно+26°C64 %749 мм1.6 м/с4 %
    14:00Ясно и безоблачно+29°C49 %748 мм1.3 м/с1 %
    17:00Практически безоблачно+30°C42 %748 мм1.5 м/с2 %
    20:00Ясно и безоблачно+26°C62 %748 мм1.7 м/с2 %
    23:00Ясно и безоблачно+22°C67 %748 мм1.5 м/с2 %
  • 16июля
    Вторник
    +18°
    +33°
    Небольшая облачность
    ВремяПогодаТемператураВлажностьДавлениеВетер, м/сВероятность осадков
    02:00Ясно и безоблачно+18°C81 %748 мм2.2 м/с2 %
    05:00Ясно и безоблачно+18°C86 %747 мм1.8 м/с2 %
    08:00Ясно и безоблачно+24°C73 %748 мм3.2 м/с2 %
    11:00Практически безоблачно+30°C55 %747 мм4.9 м/с2 %
    14:00Небольшая облачность+32°C45 %746 мм4.5 м/с4 %
    17:00Небольшая облачность+31°C51 %746 мм3.3 м/с37 %
    20:00Облачно с прояснениями+27°C74 %746 мм1.2 м/с21 %
    23:00Облачно с прояснениями, ливень+22°C86 %747 мм2.7 м/с40 %
  • 17июля
    Среда
    +16°
    +29°
    Ясно и безоблачно
    ВремяПогодаТемператураВлажностьДавлениеВетер, м/сВероятность осадков
    02:00Облачно с прояснениями+21°C87 %748 мм3.4 м/с15 %
    05:00Облачно с прояснениями+18°C93 %749 мм3.0 м/с1 %
    08:00Ясно и безоблачно+23°C78 %750 мм2.3 м/с2 %
    11:00Ясно и безоблачно+27°C45 %751 мм3.5 м/с5 %
    14:00Ясно и безоблачно+28°C36 %751 мм4.3 м/с10 %
    17:00Ясно и безоблачно+28°C37 %751 мм4.5 м/с5 %
    20:00Ясно и безоблачно+25°C49 %751 мм3.0 м/с4 %
    23:00Ясно и безоблачно+20°C61 %752 мм2.2 м/с4 %
  • 18июля
    Четверг
    +15°
    +27°
    Практически безоблачно
    ВремяПогодаТемператураВлажностьДавлениеВетер, м/сВероятность осадков
    02:00Ясно и безоблачно+18°C71 %753 мм2.0 м/с7 %
    05:00Ясно и безоблачно+16°C80 %753 мм1.9 м/с6 %
    08:00Ясно и безоблачно+21°C59 %754 мм1.8 м/с7 %
    11:00Ясно и безоблачно+25°C44 %754 мм3.2 м/с5 %
    14:00Практически безоблачно+26°C38 %753 мм3.4 м/с2 %
    17:00Практически безоблачно+27°C37 %753 мм3.5 м/с2 %
    20:00Облачно с прояснениями+24°C51 %753 мм2.4 м/с2 %
    23:00Ясно и безоблачно+19°C66 %753 мм2.1 м/с2 %
  • 19июля
    Пятница
    +15°
    +27°
    Облачно с прояснениями
    ВремяПогодаТемператураВлажностьДавлениеВетер, м/сВероятность осадков
    02:00Ясно и безоблачно+15°C81 %753 мм2.4 м/с2 %
    05:00Облачно с прояснениями+16°C79 %753 мм1.5 м/с2 %
    08:00Облачно с прояснениями+21°C64 %753 мм0.6 м/с2 %
    11:00Облачно с прояснениями+25°C46 %753 мм2.0 м/с2 %
    14:00Облачно с прояснениями+27°C42 %752 мм3.1 м/с4 %
    17:00Небольшая облачность+26°C41 %751 мм3.8 м/с4 %
    20:00Облачно с прояснениями+23°C52 %751 мм2.1 м/с2 %
    23:00Облачно с прояснениями+19°C61 %751 мм2.3 м/с2 %
Мы используем cookies
Соглашаюсь